Terminal Aerodrome Forecast
Issued by NWS

Home | Current Version | Previous Version | Text Only | Print | Product List | Glossary On
Versions: 1 2 3 4 5 6 7 8 9 10 11 12 13 14 15 16 17 18 19 20 21 22
385
FTUS44 KMAF 172333
TAFHOB
TAF
KHOB 172333Z 1800/1824 24012KT P6SM SCT250
     FM181100 29017G27KT P6SM BKN250
     FM181400 33026G31KT P6SM SCT250
     FM181800 36017G25KT P6SM FEW250=

USA.gov is the U.S. government's official web portal to all federal, state and local government web resources and services.